sensor_id;sensor_type;location;lat;lon;timestamp;P1;durP1;ratioP1;P2;durP2;ratioP2
60700;SDS011;46541;49.894;10.886;2023-01-24T00:00:44;12.55;;;7.25;;
60700;SDS011;46541;49.894;10.886;2023-01-24T00:03:11;15.55;;;8.15;;
60700;SDS011;46541;49.894;10.886;2023-01-24T00:05:39;14.75;;;8.52;;
60700;SDS011;46541;49.894;10.886;2023-01-24T00:08:07;13.13;;;7.57;;
60700;SDS011;46541;49.894;10.886;2023-01-24T00:10:34;12.68;;;7.20;;
60700;SDS011;46541;49.894;10.886;2023-01-24T00:13:02;16.13;;;8.02;;
60700;SDS011;46541;49.894;10.886;2023-01-24T00:15:29;13.10;;;7.20;;
60700;SDS011;46541;49.894;10.886;2023-01-24T00:17:56;14.20;;;7.78;;
60700;SDS011;46541;49.894;10.886;2023-01-24T00:20:22;14.30;;;7.70;;
60700;SDS011;46541;49.894;10.886;2023-01-24T00:22:49;14.38;;;7.25;;
60700;SDS011;46541;49.894;10.886;2023-01-24T00:25:16;15.15;;;8.10;;
60700;SDS011;46541;49.894;10.886;2023-01-24T00:27:43;14.88;;;7.35;;
60700;SDS011;46541;49.894;10.886;2023-01-24T00:30:10;15.57;;;8.30;;
60700;SDS011;46541;49.894;10.886;2023-01-24T00:32:37;16.20;;;8.27;;
60700;SDS011;46541;49.894;10.886;2023-01-24T00:35:04;15.20;;;7.93;;
60700;SDS011;46541;49.894;10.886;2023-01-24T00:37:31;17.77;;;8.45;;
60700;SDS011;46541;49.894;10.886;2023-01-24T00:39:58;16.52;;;7.65;;
60700;SDS011;46541;49.894;10.886;2023-01-24T00:42:24;15.80;;;7.78;;
60700;SDS011;46541;49.894;10.886;2023-01-24T00:44:51;14.60;;;7.70;;
60700;SDS011;46541;49.894;10.886;2023-01-24T00:47:18;12.52;;;7.80;;
60700;SDS011;46541;49.894;10.886;2023-01-24T00:49:45;14.60;;;8.25;;
60700;SDS011;46541;49.894;10.886;2023-01-24T00:52:11;14.88;;;8.18;;
60700;SDS011;46541;49.894;10.886;2023-01-24T00:54:38;13.38;;;7.47;;
60700;SDS011;46541;49.894;10.886;2023-01-24T00:57:05;14.20;;;7.47;;
60700;SDS011;46541;49.894;10.886;2023-01-24T00:59:32;14.10;;;7.45;;
60700;SDS011;46541;49.894;10.886;2023-01-24T01:01:58;14.25;;;8.32;;
60700;SDS011;46541;49.894;10.886;2023-01-24T01:04:25;14.32;;;7.93;;
60700;SDS011;46541;49.894;10.886;2023-01-24T01:06:52;12.73;;;7.47;;
60700;SDS011;46541;49.894;10.886;2023-01-24T01:09:19;16.00;;;9.25;;
60700;SDS011;46541;49.894;10.886;2023-01-24T01:11:45;15.63;;;7.72;;
60700;SDS011;46541;49.894;10.886;2023-01-24T01:14:12;16.75;;;9.05;;
60700;SDS011;46541;49.894;10.886;2023-01-24T01:16:39;14.35;;;7.93;;
60700;SDS011;46541;49.894;10.886;2023-01-24T01:19:05;17.95;;;8.38;;
60700;SDS011;46541;49.894;10.886;2023-01-24T01:21:32;13.93;;;7.55;;
60700;SDS011;46541;49.894;10.886;2023-01-24T01:23:59;14.30;;;7.40;;
60700;SDS011;46541;49.894;10.886;2023-01-24T01:26:26;12.70;;;8.05;;
60700;SDS011;46541;49.894;10.886;2023-01-24T01:28:53;14.02;;;7.00;;
60700;SDS011;46541;49.894;10.886;2023-01-24T01:31:19;12.35;;;7.25;;
60700;SDS011;46541;49.894;10.886;2023-01-24T01:33:46;13.48;;;8.02;;
60700;SDS011;46541;49.894;10.886;2023-01-24T01:36:13;13.55;;;7.70;;
60700;SDS011;46541;49.894;10.886;2023-01-24T01:38:40;11.93;;;7.68;;
60700;SDS011;46541;49.894;10.886;2023-01-24T01:41:07;14.07;;;8.20;;
60700;SDS011;46541;49.894;10.886;2023-01-24T01:43:34;14.98;;;8.05;;
60700;SDS011;46541;49.894;10.886;2023-01-24T01:46:14;16.10;;;8.63;;
60700;SDS011;46541;49.894;10.886;2023-01-24T01:48:47;16.15;;;7.80;;
60700;SDS011;46541;49.894;10.886;2023-01-24T01:53:48;16.60;;;7.68;;
60700;SDS011;46541;49.894;10.886;2023-01-24T01:56:25;14.57;;;8.10;;
60700;SDS011;46541;49.894;10.886;2023-01-24T01:59:02;15.18;;;7.75;;
60700;SDS011;46541;49.894;10.886;2023-01-24T02:01:32;13.93;;;7.55;;
60700;SDS011;46541;49.894;10.886;2023-01-24T02:04:03;12.85;;;7.60;;
60700;SDS011;46541;49.894;10.886;2023-01-24T02:09:32;15.23;;;7.80;;
60700;SDS011;46541;49.894;10.886;2023-01-24T02:12:10;14.90;;;7.70;;
60700;SDS011;46541;49.894;10.886;2023-01-24T02:14:57;13.57;;;7.85;;
60700;SDS011;46541;49.894;10.886;2023-01-24T02:17:47;15.00;;;7.80;;
60700;SDS011;46541;49.894;10.886;2023-01-24T02:28:33;12.50;;;7.68;;
60700;SDS011;46541;49.894;10.886;2023-01-24T02:31:01;15.85;;;8.30;;
60700;SDS011;46541;49.894;10.886;2023-01-24T02:33:29;11.48;;;7.00;;
60700;SDS011;46541;49.894;10.886;2023-01-24T02:41:31;14.70;;;8.68;;
60700;SDS011;46541;49.894;10.886;2023-01-24T02:47:11;12.98;;;7.68;;
60700;SDS011;46541;49.894;10.886;2023-01-24T02:49:38;17.10;;;8.02;;
60700;SDS011;46541;49.894;10.886;2023-01-24T02:52:04;13.35;;;7.88;;
60700;SDS011;46541;49.894;10.886;2023-01-24T02:54:52;13.35;;;7.88;;
60700;SDS011;46541;49.894;10.886;2023-01-24T02:57:19;12.80;;;7.30;;
60700;SDS011;46541;49.894;10.886;2023-01-24T03:00:05;15.60;;;8.23;;
60700;SDS011;46541;49.894;10.886;2023-01-24T03:02:33;14.77;;;7.93;;
60700;SDS011;46541;49.894;10.886;2023-01-24T03:05:00;11.25;;;6.65;;
60700;SDS011;46541;49.894;10.886;2023-01-24T03:07:27;14.75;;;7.40;;
60700;SDS011;46541;49.894;10.886;2023-01-24T03:10:09;15.00;;;8.30;;
60700;SDS011;46541;49.894;10.886;2023-01-24T03:12:43;15.05;;;7.90;;
60700;SDS011;46541;49.894;10.886;2023-01-24T03:15:29;14.05;;;7.57;;
60700;SDS011;46541;49.894;10.886;2023-01-24T03:18:14;14.68;;;7.75;;
60700;SDS011;46541;49.894;10.886;2023-01-24T03:21:00;12.95;;;6.95;;
60700;SDS011;46541;49.894;10.886;2023-01-24T03:23:45;15.30;;;8.07;;
60700;SDS011;46541;49.894;10.886;2023-01-24T03:26:31;14.87;;;7.30;;
60700;SDS011;46541;49.894;10.886;2023-01-24T03:29:16;14.73;;;7.40;;
60700;SDS011;46541;49.894;10.886;2023-01-24T03:32:01;13.85;;;7.75;;
60700;SDS011;46541;49.894;10.886;2023-01-24T03:34:47;12.65;;;8.02;;
60700;SDS011;46541;49.894;10.886;2023-01-24T03:37:17;14.65;;;7.72;;
60700;SDS011;46541;49.894;10.886;2023-01-24T03:40:05;14.60;;;7.25;;
60700;SDS011;46541;49.894;10.886;2023-01-24T03:42:34;15.88;;;8.13;;
60700;SDS011;46541;49.894;10.886;2023-01-24T03:45:03;14.48;;;7.68;;
60700;SDS011;46541;49.894;10.886;2023-01-24T03:47:45;14.40;;;8.20;;
60700;SDS011;46541;49.894;10.886;2023-01-24T03:50:31;12.65;;;8.02;;
60700;SDS011;46541;49.894;10.886;2023-01-24T03:53:19;12.20;;;7.25;;
60700;SDS011;46541;49.894;10.886;2023-01-24T03:55:46;16.35;;;8.13;;
60700;SDS011;46541;49.894;10.886;2023-01-24T03:58:21;15.30;;;8.07;;
60700;SDS011;46541;49.894;10.886;2023-01-24T04:00:49;16.77;;;8.25;;
60700;SDS011;46541;49.894;10.886;2023-01-24T04:03:16;19.42;;;9.43;;
60700;SDS011;46541;49.894;10.886;2023-01-24T04:05:42;15.45;;;8.63;;
60700;SDS011;46541;49.894;10.886;2023-01-24T04:08:09;17.42;;;8.77;;
60700;SDS011;46541;49.894;10.886;2023-01-24T04:10:36;16.00;;;8.43;;
60700;SDS011;46541;49.894;10.886;2023-01-24T04:13:03;18.40;;;8.43;;
60700;SDS011;46541;49.894;10.886;2023-01-24T04:15:31;16.92;;;9.52;;
60700;SDS011;46541;49.894;10.886;2023-01-24T04:17:59;13.90;;;8.02;;
60700;SDS011;46541;49.894;10.886;2023-01-24T04:20:28;12.93;;;7.85;;
60700;SDS011;46541;49.894;10.886;2023-01-24T04:22:59;15.15;;;8.60;;
60700;SDS011;46541;49.894;10.886;2023-01-24T04:25:26;15.18;;;8.57;;
60700;SDS011;46541;49.894;10.886;2023-01-24T04:27:53;15.68;;;7.85;;
60700;SDS011;46541;49.894;10.886;2023-01-24T04:30:20;18.90;;;8.43;;
60700;SDS011;46541;49.894;10.886;2023-01-24T04:32:47;17.65;;;9.02;;
60700;SDS011;46541;49.894;10.886;2023-01-24T04:35:15;16.48;;;8.27;;
60700;SDS011;46541;49.894;10.886;2023-01-24T04:37:43;14.05;;;8.00;;
60700;SDS011;46541;49.894;10.886;2023-01-24T04:40:10;14.18;;;8.23;;
60700;SDS011;46541;49.894;10.886;2023-01-24T04:42:37;11.80;;;6.90;;
60700;SDS011;46541;49.894;10.886;2023-01-24T04:45:04;15.05;;;8.02;;
60700;SDS011;46541;49.894;10.886;2023-01-24T04:47:31;14.95;;;8.00;;
60700;SDS011;46541;49.894;10.886;2023-01-24T04:49:58;14.30;;;8.43;;
60700;SDS011;46541;49.894;10.886;2023-01-24T04:52:25;14.73;;;7.82;;
60700;SDS011;46541;49.894;10.886;2023-01-24T04:54:52;15.93;;;8.75;;
60700;SDS011;46541;49.894;10.886;2023-01-24T04:57:18;12.85;;;8.07;;
60700;SDS011;46541;49.894;10.886;2023-01-24T04:59:45;13.65;;;7.55;;
60700;SDS011;46541;49.894;10.886;2023-01-24T05:02:12;14.05;;;7.68;;
60700;SDS011;46541;49.894;10.886;2023-01-24T05:04:39;13.10;;;7.63;;
60700;SDS011;46541;49.894;10.886;2023-01-24T05:07:05;13.80;;;7.15;;
60700;SDS011;46541;49.894;10.886;2023-01-24T05:09:32;13.75;;;7.85;;
60700;SDS011;46541;49.894;10.886;2023-01-24T05:11:59;16.27;;;7.93;;
60700;SDS011;46541;49.894;10.886;2023-01-24T05:14:25;12.73;;;7.20;;
60700;SDS011;46541;49.894;10.886;2023-01-24T05:16:52;15.13;;;7.28;;
60700;SDS011;46541;49.894;10.886;2023-01-24T05:19:19;14.70;;;8.05;;
60700;SDS011;46541;49.894;10.886;2023-01-24T05:21:46;16.67;;;7.72;;
60700;SDS011;46541;49.894;10.886;2023-01-24T05:24:13;19.63;;;8.95;;
60700;SDS011;46541;49.894;10.886;2023-01-24T05:26:39;16.05;;;8.85;;
60700;SDS011;46541;49.894;10.886;2023-01-24T05:29:06;15.13;;;8.18;;
60700;SDS011;46541;49.894;10.886;2023-01-24T05:31:33;17.65;;;9.40;;
60700;SDS011;46541;49.894;10.886;2023-01-24T05:33:59;16.38;;;9.35;;
60700;SDS011;46541;49.894;10.886;2023-01-24T05:36:26;17.02;;;9.50;;
60700;SDS011;46541;49.894;10.886;2023-01-24T05:38:53;14.90;;;8.18;;
60700;SDS011;46541;49.894;10.886;2023-01-24T05:41:20;13.57;;;8.48;;
60700;SDS011;46541;49.894;10.886;2023-01-24T05:43:47;18.98;;;9.43;;
60700;SDS011;46541;49.894;10.886;2023-01-24T05:46:16;22.10;;;10.23;;
60700;SDS011;46541;49.894;10.886;2023-01-24T05:48:45;13.50;;;7.32;;
60700;SDS011;46541;49.894;10.886;2023-01-24T05:51:15;15.82;;;8.32;;
60700;SDS011;46541;49.894;10.886;2023-01-24T05:53:43;15.07;;;8.65;;
60700;SDS011;46541;49.894;10.886;2023-01-24T05:56:14;17.08;;;8.65;;
60700;SDS011;46541;49.894;10.886;2023-01-24T05:58:43;18.40;;;9.43;;
60700;SDS011;46541;49.894;10.886;2023-01-24T06:01:12;15.32;;;8.45;;
60700;SDS011;46541;49.894;10.886;2023-01-24T06:03:44;17.55;;;9.25;;
60700;SDS011;46541;49.894;10.886;2023-01-24T06:06:13;15.30;;;7.85;;
60700;SDS011;46541;49.894;10.886;2023-01-24T06:08:42;14.27;;;7.72;;
60700;SDS011;46541;49.894;10.886;2023-01-24T06:11:11;16.67;;;8.20;;
60700;SDS011;46541;49.894;10.886;2023-01-24T06:13:43;13.57;;;8.35;;
60700;SDS011;46541;49.894;10.886;2023-01-24T06:16:11;15.95;;;8.40;;
60700;SDS011;46541;49.894;10.886;2023-01-24T06:18:40;14.88;;;7.70;;
60700;SDS011;46541;49.894;10.886;2023-01-24T06:21:56;13.18;;;6.95;;
60700;SDS011;46541;49.894;10.886;2023-01-24T06:24:25;13.38;;;7.07;;
60700;SDS011;46541;49.894;10.886;2023-01-24T06:26:53;17.45;;;7.43;;
60700;SDS011;46541;49.894;10.886;2023-01-24T06:29:20;15.05;;;8.10;;
60700;SDS011;46541;49.894;10.886;2023-01-24T06:40:09;14.75;;;8.30;;
60700;SDS011;46541;49.894;10.886;2023-01-24T06:42:37;14.00;;;7.43;;
60700;SDS011;46541;49.894;10.886;2023-01-24T06:45:05;13.32;;;8.05;;
60700;SDS011;46541;49.894;10.886;2023-01-24T06:47:32;13.38;;;7.38;;
60700;SDS011;46541;49.894;10.886;2023-01-24T06:50:00;15.23;;;8.20;;
60700;SDS011;46541;49.894;10.886;2023-01-24T06:52:27;17.48;;;8.77;;
60700;SDS011;46541;49.894;10.886;2023-01-24T06:54:54;15.85;;;8.10;;
60700;SDS011;46541;49.894;10.886;2023-01-24T06:57:20;16.92;;;7.93;;
60700;SDS011;46541;49.894;10.886;2023-01-24T06:59:47;16.02;;;7.80;;
60700;SDS011;46541;49.894;10.886;2023-01-24T07:02:14;17.35;;;7.30;;
60700;SDS011;46541;49.894;10.886;2023-01-24T07:04:41;13.88;;;7.38;;
60700;SDS011;46541;49.894;10.886;2023-01-24T07:07:08;14.80;;;7.43;;
60700;SDS011;46541;49.894;10.886;2023-01-24T07:09:34;14.48;;;8.10;;
60700;SDS011;46541;49.894;10.886;2023-01-24T07:12:01;14.30;;;7.70;;
60700;SDS011;46541;49.894;10.886;2023-01-24T07:14:28;15.48;;;7.95;;
60700;SDS011;46541;49.894;10.886;2023-01-24T07:16:55;13.95;;;7.85;;
60700;SDS011;46541;49.894;10.886;2023-01-24T07:19:22;13.15;;;8.07;;
60700;SDS011;46541;49.894;10.886;2023-01-24T07:21:51;16.52;;;8.93;;
60700;SDS011;46541;49.894;10.886;2023-01-24T07:24:20;15.88;;;9.52;;
60700;SDS011;46541;49.894;10.886;2023-01-24T07:26:48;18.10;;;10.60;;
60700;SDS011;46541;49.894;10.886;2023-01-24T07:29:17;21.30;;;10.65;;
60700;SDS011;46541;49.894;10.886;2023-01-24T07:31:44;31.27;;;11.23;;
60700;SDS011;46541;49.894;10.886;2023-01-24T07:34:17;17.48;;;10.18;;
60700;SDS011;46541;49.894;10.886;2023-01-24T07:36:44;15.38;;;9.43;;
60700;SDS011;46541;49.894;10.886;2023-01-24T07:39:12;17.15;;;9.82;;
60700;SDS011;46541;49.894;10.886;2023-01-24T07:41:39;18.77;;;10.50;;
60700;SDS011;46541;49.894;10.886;2023-01-24T07:44:08;19.10;;;9.60;;
60700;SDS011;46541;49.894;10.886;2023-01-24T07:46:35;20.75;;;9.57;;
60700;SDS011;46541;49.894;10.886;2023-01-24T07:49:02;15.20;;;9.13;;
60700;SDS011;46541;49.894;10.886;2023-01-24T07:51:29;17.85;;;10.88;;
60700;SDS011;46541;49.894;10.886;2023-01-24T07:53:56;16.08;;;8.32;;
60700;SDS011;46541;49.894;10.886;2023-01-24T07:56:23;15.10;;;7.88;;
60700;SDS011;46541;49.894;10.886;2023-01-24T07:58:51;15.52;;;9.15;;
60700;SDS011;46541;49.894;10.886;2023-01-24T08:01:19;16.10;;;9.55;;
60700;SDS011;46541;49.894;10.886;2023-01-24T08:03:47;17.80;;;10.23;;
60700;SDS011;46541;49.894;10.886;2023-01-24T08:06:15;16.52;;;9.68;;
60700;SDS011;46541;49.894;10.886;2023-01-24T08:08:43;18.35;;;10.75;;
60700;SDS011;46541;49.894;10.886;2023-01-24T08:11:10;15.27;;;9.73;;
60700;SDS011;46541;49.894;10.886;2023-01-24T08:13:39;20.63;;;13.43;;
60700;SDS011;46541;49.894;10.886;2023-01-24T08:16:06;28.08;;;16.13;;
60700;SDS011;46541;49.894;10.886;2023-01-24T08:18:33;83.13;;;37.30;;
60700;SDS011;46541;49.894;10.886;2023-01-24T08:21:02;88.53;;;43.25;;
60700;SDS011;46541;49.894;10.886;2023-01-24T08:23:30;96.28;;;40.95;;
60700;SDS011;46541;49.894;10.886;2023-01-24T08:25:57;27.58;;;14.82;;
60700;SDS011;46541;49.894;10.886;2023-01-24T08:28:25;23.02;;;11.68;;
60700;SDS011;46541;49.894;10.886;2023-01-24T08:30:52;13.80;;;8.25;;
60700;SDS011;46541;49.894;10.886;2023-01-24T08:33:19;12.88;;;7.35;;
60700;SDS011;46541;49.894;10.886;2023-01-24T08:35:46;11.73;;;6.40;;
60700;SDS011;46541;49.894;10.886;2023-01-24T08:38:13;12.40;;;7.38;;
60700;SDS011;46541;49.894;10.886;2023-01-24T08:40:41;12.93;;;7.53;;
60700;SDS011;46541;49.894;10.886;2023-01-24T08:43:15;15.38;;;7.88;;
60700;SDS011;46541;49.894;10.886;2023-01-24T08:45:42;15.60;;;8.88;;
60700;SDS011;46541;49.894;10.886;2023-01-24T08:48:09;15.20;;;9.18;;
60700;SDS011;46541;49.894;10.886;2023-01-24T08:50:36;16.58;;;10.25;;
60700;SDS011;46541;49.894;10.886;2023-01-24T08:53:03;14.70;;;9.13;;
60700;SDS011;46541;49.894;10.886;2023-01-24T08:55:30;18.00;;;9.35;;
60700;SDS011;46541;49.894;10.886;2023-01-24T08:58:00;13.73;;;7.45;;
60700;SDS011;46541;49.894;10.886;2023-01-24T09:00:29;13.40;;;8.10;;
60700;SDS011;46541;49.894;10.886;2023-01-24T09:02:57;18.13;;;8.43;;
60700;SDS011;46541;49.894;10.886;2023-01-24T09:05:28;13.45;;;7.60;;
60700;SDS011;46541;49.894;10.886;2023-01-24T09:07:55;16.63;;;7.72;;
60700;SDS011;46541;49.894;10.886;2023-01-24T09:10:22;14.63;;;7.50;;
60700;SDS011;46541;49.894;10.886;2023-01-24T09:12:49;12.30;;;7.05;;
60700;SDS011;46541;49.894;10.886;2023-01-24T09:15:16;12.70;;;6.90;;
60700;SDS011;46541;49.894;10.886;2023-01-24T09:17:43;12.32;;;6.60;;
60700;SDS011;46541;49.894;10.886;2023-01-24T09:20:10;14.93;;;7.53;;
60700;SDS011;46541;49.894;10.886;2023-01-24T09:22:37;20.90;;;8.98;;
60700;SDS011;46541;49.894;10.886;2023-01-24T09:25:04;15.95;;;8.15;;
60700;SDS011;46541;49.894;10.886;2023-01-24T09:27:34;17.75;;;8.43;;
60700;SDS011;46541;49.894;10.886;2023-01-24T09:30:07;25.25;;;13.45;;
60700;SDS011;46541;49.894;10.886;2023-01-24T09:32:35;16.63;;;10.43;;
60700;SDS011;46541;49.894;10.886;2023-01-24T09:35:02;17.02;;;9.32;;
60700;SDS011;46541;49.894;10.886;2023-01-24T09:37:29;21.33;;;11.00;;
60700;SDS011;46541;49.894;10.886;2023-01-24T09:39:56;18.08;;;10.32;;
60700;SDS011;46541;49.894;10.886;2023-01-24T09:42:39;21.23;;;10.63;;
60700;SDS011;46541;49.894;10.886;2023-01-24T09:48:05;18.95;;;10.20;;
60700;SDS011;46541;49.894;10.886;2023-01-24T09:50:47;17.30;;;10.13;;
60700;SDS011;46541;49.894;10.886;2023-01-24T09:53:28;17.60;;;9.25;;
60700;SDS011;46541;49.894;10.886;2023-01-24T09:56:01;16.25;;;8.82;;
60700;SDS011;46541;49.894;10.886;2023-01-24T09:58:40;20.13;;;8.75;;
60700;SDS011;46541;49.894;10.886;2023-01-24T10:01:13;14.82;;;8.88;;
60700;SDS011;46541;49.894;10.886;2023-01-24T10:03:41;16.23;;;9.27;;
60700;SDS011;46541;49.894;10.886;2023-01-24T10:06:13;18.63;;;9.90;;
60700;SDS011;46541;49.894;10.886;2023-01-24T10:17:20;16.45;;;9.93;;
60700;SDS011;46541;49.894;10.886;2023-01-24T10:25:25;18.60;;;9.27;;
60700;SDS011;46541;49.894;10.886;2023-01-24T10:27:55;14.15;;;7.75;;
60700;SDS011;46541;49.894;10.886;2023-01-24T10:32:55;18.83;;;9.32;;
60700;SDS011;46541;49.894;10.886;2023-01-24T10:35:33;20.67;;;9.52;;
60700;SDS011;46541;49.894;10.886;2023-01-24T10:38:07;17.33;;;8.68;;
60700;SDS011;46541;49.894;10.886;2023-01-24T10:40:54;17.60;;;8.40;;
60700;SDS011;46541;49.894;10.886;2023-01-24T10:43:23;18.15;;;10.52;;
60700;SDS011;46541;49.894;10.886;2023-01-24T10:48:44;17.30;;;8.90;;
60700;SDS011;46541;49.894;10.886;2023-01-24T10:51:14;16.90;;;7.70;;
60700;SDS011;46541;49.894;10.886;2023-01-24T10:53:43;16.48;;;7.75;;
60700;SDS011;46541;49.894;10.886;2023-01-24T10:56:11;20.67;;;9.52;;
60700;SDS011;46541;49.894;10.886;2023-01-24T10:58:43;15.18;;;7.47;;
60700;SDS011;46541;49.894;10.886;2023-01-24T11:04:21;22.90;;;9.75;;
60700;SDS011;46541;49.894;10.886;2023-01-24T11:06:52;19.20;;;10.68;;
60700;SDS011;46541;49.894;10.886;2023-01-24T11:09:20;16.73;;;11.10;;
60700;SDS011;46541;49.894;10.886;2023-01-24T11:11:51;18.70;;;10.32;;
60700;SDS011;46541;49.894;10.886;2023-01-24T11:14:20;16.80;;;9.52;;
60700;SDS011;46541;49.894;10.886;2023-01-24T11:16:59;11.73;;;7.57;;
60700;SDS011;46541;49.894;10.886;2023-01-24T11:19:28;16.20;;;7.97;;
60700;SDS011;46541;49.894;10.886;2023-01-24T11:22:01;16.63;;;8.68;;
60700;SDS011;46541;49.894;10.886;2023-01-24T11:24:30;20.27;;;9.18;;
60700;SDS011;46541;49.894;10.886;2023-01-24T11:27:16;18.42;;;8.05;;
60700;SDS011;46541;49.894;10.886;2023-01-24T11:29:44;18.88;;;8.93;;
60700;SDS011;46541;49.894;10.886;2023-01-24T11:35:11;18.30;;;9.73;;
60700;SDS011;46541;49.894;10.886;2023-01-24T11:46:07;17.42;;;9.55;;
60700;SDS011;46541;49.894;10.886;2023-01-24T11:48:56;13.65;;;6.97;;
60700;SDS011;46541;49.894;10.886;2023-01-24T11:54:18;16.48;;;7.45;;
60700;SDS011;46541;49.894;10.886;2023-01-24T11:57:09;13.23;;;7.18;;
60700;SDS011;46541;49.894;10.886;2023-01-24T12:02:48;15.45;;;7.15;;
60700;SDS011;46541;49.894;10.886;2023-01-24T12:05:53;17.98;;;10.63;;
60700;SDS011;46541;49.894;10.886;2023-01-24T12:08:55;36.13;;;15.82;;
60700;SDS011;46541;49.894;10.886;2023-01-24T12:22:55;39.10;;;19.58;;
60700;SDS011;46541;49.894;10.886;2023-01-24T12:25:28;20.73;;;11.68;;
60700;SDS011;46541;49.894;10.886;2023-01-24T12:28:06;17.38;;;8.88;;
60700;SDS011;46541;49.894;10.886;2023-01-24T12:30:39;18.00;;;9.98;;
60700;SDS011;46541;49.894;10.886;2023-01-24T12:33:13;15.05;;;9.35;;
60700;SDS011;46541;49.894;10.886;2023-01-24T12:35:54;18.85;;;8.88;;
60700;SDS011;46541;49.894;10.886;2023-01-24T12:46:38;22.13;;;11.57;;
60700;SDS011;46541;49.894;10.886;2023-01-24T12:49:33;18.48;;;8.63;;
60700;SDS011;46541;49.894;10.886;2023-01-24T12:55:38;25.75;;;14.20;;
60700;SDS011;46541;49.894;10.886;2023-01-24T13:08:45;15.27;;;7.78;;
60700;SDS011;46541;49.894;10.886;2023-01-24T13:11:26;14.10;;;7.85;;
60700;SDS011;46541;49.894;10.886;2023-01-24T13:16:50;18.85;;;11.25;;
60700;SDS011;46541;49.894;10.886;2023-01-24T13:22:30;14.68;;;8.88;;
60700;SDS011;46541;49.894;10.886;2023-01-24T13:33:55;16.40;;;8.88;;
60700;SDS011;46541;49.894;10.886;2023-01-24T13:36:34;16.27;;;8.90;;
60700;SDS011;46541;49.894;10.886;2023-01-24T13:39:03;21.63;;;8.82;;
60700;SDS011;46541;49.894;10.886;2023-01-24T13:44:45;16.02;;;7.25;;
60700;SDS011;46541;49.894;10.886;2023-01-24T13:47:20;14.68;;;7.75;;
60700;SDS011;46541;49.894;10.886;2023-01-24T13:54:58;20.85;;;8.63;;
60700;SDS011;46541;49.894;10.886;2023-01-24T13:57:31;26.45;;;7.90;;
60700;SDS011;46541;49.894;10.886;2023-01-24T14:07:57;17.88;;;8.48;;
60700;SDS011;46541;49.894;10.886;2023-01-24T14:10:34;24.45;;;11.18;;
60700;SDS011;46541;49.894;10.886;2023-01-24T14:21:24;17.65;;;8.05;;
60700;SDS011;46541;49.894;10.886;2023-01-24T14:23:55;29.10;;;18.20;;
60700;SDS011;46541;49.894;10.886;2023-01-24T14:26:29;41.38;;;27.95;;
60700;SDS011;46541;49.894;10.886;2023-01-24T14:29:00;14.77;;;8.50;;
60700;SDS011;46541;49.894;10.886;2023-01-24T14:31:32;14.93;;;8.45;;
60700;SDS011;46541;49.894;10.886;2023-01-24T14:34:05;17.30;;;8.85;;
60700;SDS011;46541;49.894;10.886;2023-01-24T14:36:59;13.50;;;8.10;;
60700;SDS011;46541;49.894;10.886;2023-01-24T14:39:29;12.13;;;7.53;;
60700;SDS011;46541;49.894;10.886;2023-01-24T14:44:25;13.60;;;7.95;;
60700;SDS011;46541;49.894;10.886;2023-01-24T14:47:01;15.25;;;8.13;;
60700;SDS011;46541;49.894;10.886;2023-01-24T14:52:02;13.82;;;7.55;;
60700;SDS011;46541;49.894;10.886;2023-01-24T14:54:54;16.00;;;8.50;;
60700;SDS011;46541;49.894;10.886;2023-01-24T14:57:23;12.68;;;7.65;;
60700;SDS011;46541;49.894;10.886;2023-01-24T15:02:25;20.48;;;10.80;;
60700;SDS011;46541;49.894;10.886;2023-01-24T15:04:52;15.95;;;8.65;;
60700;SDS011;46541;49.894;10.886;2023-01-24T15:07:18;22.23;;;10.40;;
60700;SDS011;46541;49.894;10.886;2023-01-24T15:09:48;19.92;;;11.43;;
60700;SDS011;46541;49.894;10.886;2023-01-24T15:12:32;15.43;;;9.48;;
60700;SDS011;46541;49.894;10.886;2023-01-24T15:15:00;23.45;;;15.48;;
60700;SDS011;46541;49.894;10.886;2023-01-24T15:17:29;19.52;;;11.60;;
60700;SDS011;46541;49.894;10.886;2023-01-24T15:19:59;16.70;;;10.02;;
60700;SDS011;46541;49.894;10.886;2023-01-24T15:22:35;23.67;;;11.60;;
60700;SDS011;46541;49.894;10.886;2023-01-24T15:25:15;20.17;;;10.65;;
60700;SDS011;46541;49.894;10.886;2023-01-24T15:27:47;20.58;;;8.85;;
60700;SDS011;46541;49.894;10.886;2023-01-24T15:35:22;16.73;;;8.93;;
60700;SDS011;46541;49.894;10.886;2023-01-24T15:43:19;19.30;;;10.43;;
60700;SDS011;46541;49.894;10.886;2023-01-24T15:46:13;19.90;;;10.20;;
60700;SDS011;46541;49.894;10.886;2023-01-24T15:49:04;16.80;;;9.20;;
60700;SDS011;46541;49.894;10.886;2023-01-24T15:52:03;20.83;;;11.85;;
60700;SDS011;46541;49.894;10.886;2023-01-24T15:54:40;15.55;;;9.20;;
60700;SDS011;46541;49.894;10.886;2023-01-24T15:57:16;16.38;;;8.18;;
60700;SDS011;46541;49.894;10.886;2023-01-24T15:59:52;16.20;;;9.07;;
60700;SDS011;46541;49.894;10.886;2023-01-24T16:02:22;17.55;;;9.50;;
60700;SDS011;46541;49.894;10.886;2023-01-24T16:04:49;15.95;;;8.93;;
60700;SDS011;46541;49.894;10.886;2023-01-24T16:07:16;21.80;;;10.27;;
60700;SDS011;46541;49.894;10.886;2023-01-24T16:09:46;19.77;;;10.18;;
60700;SDS011;46541;49.894;10.886;2023-01-24T16:12:19;18.00;;;10.60;;
60700;SDS011;46541;49.894;10.886;2023-01-24T16:14:48;30.00;;;12.15;;
60700;SDS011;46541;49.894;10.886;2023-01-24T16:20:01;19.70;;;11.55;;
60700;SDS011;46541;49.894;10.886;2023-01-24T16:22:32;20.77;;;10.77;;
60700;SDS011;46541;49.894;10.886;2023-01-24T16:24:59;29.60;;;15.68;;
60700;SDS011;46541;49.894;10.886;2023-01-24T16:27:26;32.58;;;15.63;;
60700;SDS011;46541;49.894;10.886;2023-01-24T16:29:57;25.73;;;12.43;;
60700;SDS011;46541;49.894;10.886;2023-01-24T16:32:24;26.95;;;12.20;;
60700;SDS011;46541;49.894;10.886;2023-01-24T16:34:51;21.50;;;12.18;;
60700;SDS011;46541;49.894;10.886;2023-01-24T16:37:18;27.60;;;13.55;;
60700;SDS011;46541;49.894;10.886;2023-01-24T16:39:48;24.38;;;12.32;;
60700;SDS011;46541;49.894;10.886;2023-01-24T16:42:16;24.83;;;12.43;;
60700;SDS011;46541;49.894;10.886;2023-01-24T16:44:53;21.23;;;11.52;;
60700;SDS011;46541;49.894;10.886;2023-01-24T16:47:22;20.60;;;10.18;;
60700;SDS011;46541;49.894;10.886;2023-01-24T16:49:53;18.63;;;10.35;;
60700;SDS011;46541;49.894;10.886;2023-01-24T16:52:21;23.02;;;11.55;;
60700;SDS011;46541;49.894;10.886;2023-01-24T16:54:49;27.67;;;12.80;;
60700;SDS011;46541;49.894;10.886;2023-01-24T16:57:17;27.13;;;13.60;;
60700;SDS011;46541;49.894;10.886;2023-01-24T16:59:44;32.65;;;14.32;;
60700;SDS011;46541;49.894;10.886;2023-01-24T17:02:12;22.98;;;13.23;;
60700;SDS011;46541;49.894;10.886;2023-01-24T17:04:40;21.88;;;13.13;;
60700;SDS011;46541;49.894;10.886;2023-01-24T17:07:07;31.88;;;17.27;;
60700;SDS011;46541;49.894;10.886;2023-01-24T17:09:34;21.13;;;12.30;;
60700;SDS011;46541;49.894;10.886;2023-01-24T17:12:00;22.00;;;12.10;;
60700;SDS011;46541;49.894;10.886;2023-01-24T17:14:39;21.38;;;12.38;;
60700;SDS011;46541;49.894;10.886;2023-01-24T17:17:07;26.98;;;14.32;;
60700;SDS011;46541;49.894;10.886;2023-01-24T17:19:34;26.45;;;15.20;;
60700;SDS011;46541;49.894;10.886;2023-01-24T17:22:03;25.35;;;13.10;;
60700;SDS011;46541;49.894;10.886;2023-01-24T17:24:30;30.65;;;14.88;;
60700;SDS011;46541;49.894;10.886;2023-01-24T17:26:57;29.70;;;17.05;;